Airfield :
LOGIN :

Register | Disclaimer

   EN    FR    IT 

 










Legend :    VFR   Marginal VFR   IFR   Intensive IFR   Very Intensive IFR
Visi :
Ceiling :
>= 8 km
>= 3000ft
5 to 8 km
1000 to 3000 ft
1500m to 5 km
500 to 1000 ft
800 to 1500m
200 to 500 ft
< 800m
< 200 ft
Symbols :   Thunderstorms  Fog  Heavy snow  Heavy precipitations  Wind > 20 kt
SIGMETs :     Misc.  Thunderstorms  Icing  Turbulence  Mountain Waves  Volcanic Ashes






- Airport Elevation : 489 ft
- IATA code : GDN


EPGD - Gdansk

CURRENT METAR :
  • 051630Z 23010KT CAVOK 02/M01 Q1014

EXPIRED METARs :
  • 051600Z 23010KT CAVOK 03/M01 Q1014
  • 051530Z 25008KT 200V270 CAVOK 03/M01 Q1014
  • 051500Z 21008KT 9999 FEW045 03/M01 Q1014
  • 051430Z 22009KT 9999 SCT044 04/M01 Q1014
  • 051400Z 22008KT CAVOK 04/M00 Q1015

TAF TAF EPGD
Valid from the 05 at 12:00 until the 06 at 12:00 UTC


051130Z 0512/0612 25012KT CAVOK
PROB40 0520/0524 3000 BR BKN004
BECMG 0609/0612 26018KT -RA BKN014



MET'MAP, your aeronautical weather chart ! - Copyright ORBIFLY December 2007 - Disclaimer

ORBIFLY MET'MAP TEAM :

Programming & Development : Alexandra Zaïnal
Concept & original design : Baudouin d'Aumeries
Assistance for programming : Marc-Olivier Méhu
Technical & hardware support : Manuel Goepfert

Contact : metmap@orbifly.com




SOURCES & CREDITS :

   NOAA